Suederoog — ZDHC8 — position and weather

sailwx.info

Track history (hours):
 
Tides and Currents Weather Stations Pressure Air Temp Water Temp Dewpoint Dewpoint Depression Visibility Wind Speed Wind Dir Waves Ship Positions

Suederoog

Last reported at 2017-Dec-11 12:30 UTC. Time now 2017-Dec-11 12:56 UTC.
Position N 50°43' E 000°49'.

Length 161 m; draft 9.7 m.

Type: Ship (hazmat cat A). MMSI: 236300000.

Date/timePositionNaut miles runAvg speedWind from/ knotsBaromVisibWave heightAir tempDewpointWater temp
2017-Dec-11 12:30N 50°43' E 000°49'714.0
2017-Dec-11 12:00N 50°47' E 000°58'813.9
2017-Dec-11 11:28N 50°52' E 001°08'913.8
2017-Dec-11 10:51N 50°58' E 001°17'513.6
2017-Dec-11 10:30N 51°02' E 001°22'713.5
2017-Dec-11 10:00N 51°06' E 001°30'612.9
2017-Dec-11 09:31N 51°10' E 001°38'612.3
2017-Dec-11 09:00N 51°14' E 001°46'611.3
2017-Dec-11 08:30N 51°18' E 001°51'510.8
2017-Dec-11 08:00N 51°23' E 001°55'510.6
2017-Dec-11 07:30N 51°27' E 001°60'511.0
2017-Dec-11 07:00N 51°31' E 002°06'611.0
2017-Dec-11 06:30N 51°36' E 002°12'5811.3
2017-Dec-11 01:21N 52°03' E 003°34'512.2
2017-Dec-11 00:59N 52°03' E 003°42'612.0
2017-Dec-11 00:30N 52°02' E 003°51'5 9.9
2017-Dec-11 00:00N 52°01' E 003°59'510.6
2017-Dec-10 23:31N 51°57' E 004°05'1 1.5
2017-Dec-10 22:59N 51°57' E 004°04'0 0.0
2017-Dec-10 22:29N 51°57' E 004°04'0 0.0
2017-Dec-10 22:00N 51°57' E 004°04'0 0.0
2017-Dec-10 21:30N 51°57' E 004°04'0 0.0
2017-Dec-10 20:59N 51°57' E 004°04'0 0.0
2017-Dec-10 20:30N 51°57' E 004°04'0 0.0
2017-Dec-10 19:59N 51°57' E 004°04'0 0.0
2017-Dec-10 19:29N 51°57' E 004°04'0 0.0
2017-Dec-10 19:00N 51°57' E 004°04'0 0.0
2017-Dec-10 18:29N 51°57' E 004°04'0 0.0
2017-Dec-10 17:59N 51°57' E 004°04'0 0.0
2017-Dec-10 17:30N 51°57' E 004°04'0 0.0
2017-Dec-10 17:00N 51°57' E 004°04'0 0.0
2017-Dec-10 16:30N 51°57' E 004°04'0 0.0
2017-Dec-10 15:59N 51°57' E 004°04'0 0.0
2017-Dec-10 15:30N 51°57' E 004°04'0 0.0
2017-Dec-10 15:00N 51°57' E 004°04'0 0.0
2017-Dec-10 14:30N 51°57' E 004°04'0 0.0
2017-Dec-10 14:00N 51°57' E 004°04'0 0.0
2017-Dec-10 13:30N 51°57' E 004°04'0 0.0
2017-Dec-10 13:00N 51°57' E 004°04'0 0.0
2017-Dec-10 12:30N 51°57' E 004°04'0 0.0
2017-Dec-10 12:00N 51°57' E 004°04'0 0.0
2017-Dec-10 11:30N 51°57' E 004°04'1 1.6
2017-Dec-10 11:00N 51°57' E 004°05'3 6.6
2017-Dec-10 10:30N 51°58' E 004°00'1 2.5
2017-Dec-10 09:59N 51°57' E 004°00'0 0.0
2017-Dec-10 09:26N 51°57' E 004°00'0 0.0
2017-Dec-10 08:59N 51°57' E 004°00'0 0.0
2017-Dec-10 08:29N 51°57' E 004°00'0 0.0
2017-Dec-10 07:59N 51°57' E 004°00'0 0.0
2017-Dec-10 07:29N 51°57' E 004°00'0 0.0
2017-Dec-10 06:59N 51°57' E 004°00'0 0.0
2017-Dec-10 06:29N 51°57' E 004°00'0 0.0
2017-Dec-10 05:59N 51°57' E 004°00'0 0.0
2017-Dec-10 05:26N 51°57' E 004°00'0 0.0
2017-Dec-10 04:59N 51°57' E 004°00'0 0.0
2017-Dec-10 04:29N 51°57' E 004°00'0 0.0
2017-Dec-10 03:59N 51°57' E 004°00'0 0.0
2017-Dec-10 03:29N 51°57' E 004°00'0 0.0
2017-Dec-10 02:56N 51°57' E 004°00'0 0.0
2017-Dec-10 02:29N 51°57' E 004°00'0 0.0
2017-Dec-10 01:59N 51°57' E 004°00'0 0.0
2017-Dec-10 01:26N 51°57' E 004°00'0 0.0
2017-Dec-10 00:59N 51°57' E 004°00'0 0.0
2017-Dec-10 00:29N 51°57' E 004°00'0 0.0
2017-Dec-09 23:59N 51°57' E 004°00'0 0.0
2017-Dec-09 23:29N 51°57' E 004°00'0 0.0
2017-Dec-09 22:59N 51°57' E 004°00'0 0.0
2017-Dec-09 22:29N 51°57' E 004°00'0 0.0
2017-Dec-09 21:59N 51°57' E 004°00'0 0.0
2017-Dec-09 21:29N 51°57' E 004°00'0 0.0
2017-Dec-09 20:59N 51°57' E 004°00'0 0.0
2017-Dec-09 20:29N 51°57' E 004°00'0 0.0
2017-Dec-09 19:59N 51°57' E 004°00'0 0.0
2017-Dec-09 19:29N 51°57' E 004°00'0 0.0
2017-Dec-09 18:59N 51°57' E 004°00'0 0.0
2017-Dec-09 18:29N 51°57' E 004°00'0 0.0
2017-Dec-09 17:59N 51°57' E 004°00'0 0.0
2017-Dec-09 17:29N 51°57' E 004°00'0 0.0
2017-Dec-09 16:59N 51°57' E 004°00'0 0.0
2017-Dec-09 16:29N 51°57' E 004°00'0 0.0
2017-Dec-09 16:00N 51°57' E 004°00'0 0.0
2017-Dec-09 15:30N 51°57' E 004°00'0 0.0
2017-Dec-09 15:00N 51°57' E 004°00'0 0.0
2017-Dec-09 14:30N 51°57' E 004°00'0 0.0
2017-Dec-09 14:00N 51°57' E 004°00'0 0.0
2017-Dec-09 13:30N 51°57' E 004°00'0 0.0
2017-Dec-09 12:57N 51°57' E 004°00'0 0.0
2017-Dec-09 12:30N 51°57' E 004°00'0 0.8
2017-Dec-09 12:00N 51°58' E 004°00'2 3.9
2017-Dec-09 11:30N 51°58' E 004°03'2 4.0
2017-Dec-09 11:00N 51°60' E 004°01'815.1
2017-Dec-09 10:30N 51°58' E 003°49'815.9
2017-Dec-09 10:00N 51°57' E 003°36'5 1.2
2017-Dec-09 05:39N 51°54' E 003°29'0 0.0
2017-Dec-09 05:27N 51°54' E 003°29'0 0.0
2017-Dec-09 04:57N 51°54' E 003°29'0 0.1
2017-Dec-09 04:30N 51°54' E 003°29'0 0.1
2017-Dec-09 03:51N 51°54' E 003°29'0 0.1
2017-Dec-09 03:06N 51°54' E 003°29'0 0.0
2017-Dec-09 02:51N 51°54' E 003°29'41 7.2
2017-Dec-08 21:11N 51°38' E 002°28'3 9.9
2017-Dec-08 20:54N 51°36' E 002°25'410.1
2017-Dec-08 20:30N 51°33' E 002°21'510.4
2017-Dec-08 20:00N 51°29' E 002°16'510.4
2017-Dec-08 19:30N 51°25' E 002°12'510.5
2017-Dec-08 19:00N 51°20' E 002°08'510.8
2017-Dec-08 18:30N 51°15' E 002°05'611.0
2017-Dec-08 18:00N 51°11' E 001°58'612.0
2017-Dec-08 17:30N 51°08' E 001°50'612.5
2017-Dec-08 17:00N 51°04' E 001°43'713.0
2017-Dec-08 16:30N 50°59' E 001°35'712.9
2017-Dec-08 15:58N 50°54' E 001°29'3211.5
2017-Dec-08 13:12N 50°30' E 000°55'312.0
2017-Dec-08 12:57N 50°29' E 000°50'1712.6
2017-Dec-08 11:34N 50°25' E 000°24'112.7
2017-Dec-08 11:30N 50°25' E 000°23'4111.0
2017-Dec-08 07:49N 50°31' W 000°40'311.0
2017-Dec-08 07:30N 50°33' W 000°45'510.9
2017-Dec-08 07:00N 50°36' W 000°52'510.3
2017-Dec-08 06:30N 50°39' W 000°58'5 9.6
2017-Dec-08 06:00N 50°43' W 001°02'611.4
2017-Dec-08 05:30N 50°48' W 001°07'1 1.9
2017-Dec-08 05:00N 50°49' W 001°05'0 0.0
2017-Dec-08 04:29N 50°49' W 001°05'0 0.0
2017-Dec-08 03:59N 50°49' W 001°05'0 0.0
2017-Dec-08 03:29N 50°49' W 001°05'0 0.0
2017-Dec-08 02:59N 50°49' W 001°05'0 0.0
2017-Dec-08 02:29N 50°49' W 001°05'0 0.0
2017-Dec-08 01:59N 50°49' W 001°05'0 0.0
2017-Dec-08 01:29N 50°49' W 001°05'0 0.0
2017-Dec-08 00:59N 50°49' W 001°05'0 0.0
2017-Dec-08 00:29N 50°49' W 001°05'0 0.0
2017-Dec-07 23:59N 50°49' W 001°05'0 0.0
2017-Dec-07 23:29N 50°49' W 001°05'0 0.0
2017-Dec-07 22:59N 50°49' W 001°05'1 1.8
2017-Dec-07 22:30N 50°48' W 001°07'3 6.5
2017-Dec-07 22:00N 50°45' W 001°05'611.7
2017-Dec-07 21:31N 50°42' W 000°58'510.5
2017-Dec-07 21:01N 50°36' W 000°58'3 5.9
2017-Dec-07 20:31N 50°34' W 000°57'5 9.1
2017-Dec-07 20:01N 50°29' W 000°59'4310.8
2017-Dec-07 16:00N 50°03' W 001°53'712.9
2017-Dec-07 15:27N 50°01' W 002°03'612.5
2017-Dec-07 14:59N 49°59' W 002°12'5 9.6
2017-Dec-07 14:27N 49°58' W 002°20'510.3
2017-Dec-07 14:00N 49°56' W 002°27'610.9
2017-Dec-07 13:27N 49°54' W 002°35'511.3
2017-Dec-07 13:00N 49°52' W 002°42'611.5
2017-Dec-07 12:30N 49°50' W 002°50'711.4
2017-Dec-07 11:53N 49°46' W 003°00'411.8
2017-Dec-07 11:31N 49°44' W 003°06'712.1
2017-Dec-07 10:58N 49°41' W 003°15'612.4
2017-Dec-07 10:27N 49°37' W 003°23'8813.1
2017-Dec-07 03:44N 48°53' W 005°20'313.3
2017-Dec-07 03:30N 48°52' W 005°24'713.1
2017-Dec-07 02:59N 48°48' W 005°33'4811.5
2017-Dec-06 22:47N 48°05' W 006°08'510.7
2017-Dec-06 22:17N 48°01' W 006°12'410.7
2017-Dec-06 21:57N 47°58' W 006°14'510.8
2017-Dec-06 21:30N 47°53' W 006°18'  
2017-Dec-02 06:15N 35°57' W 005°34'  
Track history (hours):
 
Tides and Currents Weather Stations Pressure Air Temp Water Temp Dewpoint Dewpoint Depression Visibility Wind Speed Wind Dir Waves Ship Positions

Suederoog

Last reported at 2017-Dec-11 12:30 UTC. Time now 2017-Dec-11 12:56 UTC.
Position N 50°43' E 000°49'.

Length 161 m; draft 9.7 m.

Type: Ship (hazmat cat A). MMSI: 236300000.

Date/timePositionNaut miles runAvg speedWind from/ knotsBaromVisibWave heightAir tempDewpointWater temp
2017-Dec-11 12:30N 50°43' E 000°49'714.0
2017-Dec-11 12:00N 50°47' E 000°58'813.9
2017-Dec-11 11:28N 50°52' E 001°08'913.8
2017-Dec-11 10:51N 50°58' E 001°17'513.6
2017-Dec-11 10:30N 51°02' E 001°22'713.5
2017-Dec-11 10:00N 51°06' E 001°30'612.9
2017-Dec-11 09:31N 51°10' E 001°38'612.3
2017-Dec-11 09:00N 51°14' E 001°46'611.3
2017-Dec-11 08:30N 51°18' E 001°51'510.8
2017-Dec-11 08:00N 51°23' E 001°55'510.6
2017-Dec-11 07:30N 51°27' E 001°60'511.0
2017-Dec-11 07:00N 51°31' E 002°06'611.0
2017-Dec-11 06:30N 51°36' E 002°12'5811.3
2017-Dec-11 01:21N 52°03' E 003°34'512.2
2017-Dec-11 00:59N 52°03' E 003°42'612.0
2017-Dec-11 00:30N 52°02' E 003°51'5 9.9
2017-Dec-11 00:00N 52°01' E 003°59'510.6
2017-Dec-10 23:31N 51°57' E 004°05'1 1.5
2017-Dec-10 22:59N 51°57' E 004°04'0 0.0
2017-Dec-10 22:29N 51°57' E 004°04'0 0.0
2017-Dec-10 22:00N 51°57' E 004°04'0 0.0
2017-Dec-10 21:30N 51°57' E 004°04'0 0.0
2017-Dec-10 20:59N 51°57' E 004°04'0 0.0
2017-Dec-10 20:30N 51°57' E 004°04'0 0.0
2017-Dec-10 19:59N 51°57' E 004°04'0 0.0
2017-Dec-10 19:29N 51°57' E 004°04'0 0.0
2017-Dec-10 19:00N 51°57' E 004°04'0 0.0
2017-Dec-10 18:29N 51°57' E 004°04'0 0.0
2017-Dec-10 17:59N 51°57' E 004°04'0 0.0
2017-Dec-10 17:30N 51°57' E 004°04'0 0.0
2017-Dec-10 17:00N 51°57' E 004°04'0 0.0
2017-Dec-10 16:30N 51°57' E 004°04'0 0.0
2017-Dec-10 15:59N 51°57' E 004°04'0 0.0
2017-Dec-10 15:30N 51°57' E 004°04'0 0.0
2017-Dec-10 15:00N 51°57' E 004°04'0 0.0
2017-Dec-10 14:30N 51°57' E 004°04'0 0.0
2017-Dec-10 14:00N 51°57' E 004°04'0 0.0
2017-Dec-10 13:30N 51°57' E 004°04'0 0.0
2017-Dec-10 13:00N 51°57' E 004°04'0 0.0
2017-Dec-10 12:30N 51°57' E 004°04'0 0.0
2017-Dec-10 12:00N 51°57' E 004°04'0 0.0
2017-Dec-10 11:30N 51°57' E 004°04'1 1.6
2017-Dec-10 11:00N 51°57' E 004°05'3 6.6
2017-Dec-10 10:30N 51°58' E 004°00'1 2.5
2017-Dec-10 09:59N 51°57' E 004°00'0 0.0
2017-Dec-10 09:26N 51°57' E 004°00'0 0.0
2017-Dec-10 08:59N 51°57' E 004°00'0 0.0
2017-Dec-10 08:29N 51°57' E 004°00'0 0.0
2017-Dec-10 07:59N 51°57' E 004°00'0 0.0
2017-Dec-10 07:29N 51°57' E 004°00'0 0.0
2017-Dec-10 06:59N 51°57' E 004°00'0 0.0
2017-Dec-10 06:29N 51°57' E 004°00'0 0.0
2017-Dec-10 05:59N 51°57' E 004°00'0 0.0
2017-Dec-10 05:26N 51°57' E 004°00'0 0.0
2017-Dec-10 04:59N 51°57' E 004°00'0 0.0
2017-Dec-10 04:29N 51°57' E 004°00'0 0.0
2017-Dec-10 03:59N 51°57' E 004°00'0 0.0
2017-Dec-10 03:29N 51°57' E 004°00'0 0.0
2017-Dec-10 02:56N 51°57' E 004°00'0 0.0
2017-Dec-10 02:29N 51°57' E 004°00'0 0.0
2017-Dec-10 01:59N 51°57' E 004°00'0 0.0
2017-Dec-10 01:26N 51°57' E 004°00'0 0.0
2017-Dec-10 00:59N 51°57' E 004°00'0 0.0
2017-Dec-10 00:29N 51°57' E 004°00'0 0.0
2017-Dec-09 23:59N 51°57' E 004°00'0 0.0
2017-Dec-09 23:29N 51°57' E 004°00'0 0.0
2017-Dec-09 22:59N 51°57' E 004°00'0 0.0
2017-Dec-09 22:29N 51°57' E 004°00'0 0.0
2017-Dec-09 21:59N 51°57' E 004°00'0 0.0
2017-Dec-09 21:29N 51°57' E 004°00'0 0.0
2017-Dec-09 20:59N 51°57' E 004°00'0 0.0
2017-Dec-09 20:29N 51°57' E 004°00'0 0.0
2017-Dec-09 19:59N 51°57' E 004°00'0 0.0
2017-Dec-09 19:29N 51°57' E 004°00'0 0.0
2017-Dec-09 18:59N 51°57' E 004°00'0 0.0
2017-Dec-09 18:29N 51°57' E 004°00'0 0.0
2017-Dec-09 17:59N 51°57' E 004°00'0 0.0
2017-Dec-09 17:29N 51°57' E 004°00'0 0.0
2017-Dec-09 16:59N 51°57' E 004°00'0 0.0
2017-Dec-09 16:29N 51°57' E 004°00'0 0.0
2017-Dec-09 16:00N 51°57' E 004°00'0 0.0
2017-Dec-09 15:30N 51°57' E 004°00'0 0.0
2017-Dec-09 15:00N 51°57' E 004°00'0 0.0
2017-Dec-09 14:30N 51°57' E 004°00'0 0.0
2017-Dec-09 14:00N 51°57' E 004°00'0 0.0
2017-Dec-09 13:30N 51°57' E 004°00'0 0.0
2017-Dec-09 12:57N 51°57' E 004°00'0 0.0
2017-Dec-09 12:30N 51°57' E 004°00'0 0.8
2017-Dec-09 12:00N 51°58' E 004°00'2 3.9
2017-Dec-09 11:30N 51°58' E 004°03'2 4.0
2017-Dec-09 11:00N 51°60' E 004°01'815.1
2017-Dec-09 10:30N 51°58' E 003°49'815.9
2017-Dec-09 10:00N 51°57' E 003°36'5 1.2
2017-Dec-09 05:39N 51°54' E 003°29'0 0.0
2017-Dec-09 05:27N 51°54' E 003°29'0 0.0
2017-Dec-09 04:57N 51°54' E 003°29'0 0.1
2017-Dec-09 04:30N 51°54' E 003°29'0 0.1
2017-Dec-09 03:51N 51°54' E 003°29'0 0.1
2017-Dec-09 03:06N 51°54' E 003°29'0 0.0
2017-Dec-09 02:51N 51°54' E 003°29'41 7.2
2017-Dec-08 21:11N 51°38' E 002°28'3 9.9
2017-Dec-08 20:54N 51°36' E 002°25'410.1
2017-Dec-08 20:30N 51°33' E 002°21'510.4
2017-Dec-08 20:00N 51°29' E 002°16'510.4
2017-Dec-08 19:30N 51°25' E 002°12'510.5
2017-Dec-08 19:00N 51°20' E 002°08'510.8
2017-Dec-08 18:30N 51°15' E 002°05'611.0
2017-Dec-08 18:00N 51°11' E 001°58'612.0
2017-Dec-08 17:30N 51°08' E 001°50'612.5
2017-Dec-08 17:00N 51°04' E 001°43'713.0
2017-Dec-08 16:30N 50°59' E 001°35'712.9
2017-Dec-08 15:58N 50°54' E 001°29'3211.5
2017-Dec-08 13:12N 50°30' E 000°55'312.0
2017-Dec-08 12:57N 50°29' E 000°50'1712.6
2017-Dec-08 11:34N 50°25' E 000°24'112.7
2017-Dec-08 11:30N 50°25' E 000°23'4111.0
2017-Dec-08 07:49N 50°31' W 000°40'311.0
2017-Dec-08 07:30N 50°33' W 000°45'510.9
2017-Dec-08 07:00N 50°36' W 000°52'510.3
2017-Dec-08 06:30N 50°39' W 000°58'5 9.6
2017-Dec-08 06:00N 50°43' W 001°02'611.4
2017-Dec-08 05:30N 50°48' W 001°07'1 1.9
2017-Dec-08 05:00N 50°49' W 001°05'0 0.0
2017-Dec-08 04:29N 50°49' W 001°05'0 0.0
2017-Dec-08 03:59N 50°49' W 001°05'0 0.0
2017-Dec-08 03:29N 50°49' W 001°05'0 0.0
2017-Dec-08 02:59N 50°49' W 001°05'0 0.0
2017-Dec-08 02:29N 50°49' W 001°05'0 0.0
2017-Dec-08 01:59N 50°49' W 001°05'0 0.0
2017-Dec-08 01:29N 50°49' W 001°05'0 0.0
2017-Dec-08 00:59N 50°49' W 001°05'0 0.0
2017-Dec-08 00:29N 50°49' W 001°05'0 0.0
2017-Dec-07 23:59N 50°49' W 001°05'0 0.0
2017-Dec-07 23:29N 50°49' W 001°05'0 0.0
2017-Dec-07 22:59N 50°49' W 001°05'1 1.8
2017-Dec-07 22:30N 50°48' W 001°07'3 6.5
2017-Dec-07 22:00N 50°45' W 001°05'611.7
2017-Dec-07 21:31N 50°42' W 000°58'510.5
2017-Dec-07 21:01N 50°36' W 000°58'3 5.9
2017-Dec-07 20:31N 50°34' W 000°57'5 9.1
2017-Dec-07 20:01N 50°29' W 000°59'4310.8
2017-Dec-07 16:00N 50°03' W 001°53'712.9
2017-Dec-07 15:27N 50°01' W 002°03'612.5
2017-Dec-07 14:59N 49°59' W 002°12'5 9.6
2017-Dec-07 14:27N 49°58' W 002°20'510.3
2017-Dec-07 14:00N 49°56' W 002°27'610.9
2017-Dec-07 13:27N 49°54' W 002°35'511.3
2017-Dec-07 13:00N 49°52' W 002°42'611.5
2017-Dec-07 12:30N 49°50' W 002°50'711.4
2017-Dec-07 11:53N 49°46' W 003°00'411.8
2017-Dec-07 11:31N 49°44' W 003°06'712.1
2017-Dec-07 10:58N 49°41' W 003°15'612.4
2017-Dec-07 10:27N 49°37' W 003°23'8813.1
2017-Dec-07 03:44N 48°53' W 005°20'313.3
2017-Dec-07 03:30N 48°52' W 005°24'713.1
2017-Dec-07 02:59N 48°48' W 005°33'4811.5
2017-Dec-06 22:47N 48°05' W 006°08'510.7
2017-Dec-06 22:17N 48°01' W 006°12'410.7
2017-Dec-06 21:57N 47°58' W 006°14'510.8
2017-Dec-06 21:30N 47°53' W 006°18'  
2017-Dec-02 06:15N 35°57' W 005°34'  

Dump ship's entire track history